createdAt,value
2017-08-25T00:02:20.319Z,2.70
2017-08-25T00:04:46.589Z,2.67
2017-08-25T00:07:13.165Z,2.80
2017-08-25T00:09:39.334Z,3.00
2017-08-25T00:12:06.231Z,3.77
2017-08-25T00:14:32.394Z,2.73
2017-08-25T00:16:58.566Z,3.20
2017-08-25T00:19:24.735Z,3.00
2017-08-25T00:21:50.922Z,3.17
2017-08-25T00:24:17.092Z,3.33
2017-08-25T00:26:43.329Z,3.53
2017-08-25T00:29:09.512Z,2.93
2017-08-25T00:31:35.766Z,2.80
2017-08-25T00:34:02.297Z,3.37
2017-08-25T00:36:28.492Z,3.40
2017-08-25T00:38:54.681Z,3.47
2017-08-25T00:41:20.922Z,3.43
2017-08-25T00:43:47.167Z,2.87
2017-08-25T00:46:13.339Z,3.67
2017-08-25T00:48:39.917Z,2.67
2017-08-25T00:51:06.117Z,4.17
2017-08-25T00:53:32.341Z,2.77
2017-08-25T00:55:59.279Z,3.13
2017-08-25T00:58:25.458Z,2.53
2017-08-25T01:00:51.702Z,2.87
2017-08-25T01:03:17.864Z,2.63
2017-08-25T01:05:44.062Z,2.80
2017-08-25T01:08:10.261Z,3.20
2017-08-25T01:10:36.735Z,2.80
2017-08-25T01:13:02.900Z,3.10
2017-08-25T01:15:29.102Z,2.23
2017-08-25T01:17:55.273Z,3.20
2017-08-25T01:20:21.462Z,2.50
2017-08-25T01:22:47.676Z,2.80
2017-08-25T01:25:14.942Z,2.63
2017-08-25T01:27:42.078Z,3.50
2017-08-25T01:30:08.260Z,3.63
2017-08-25T01:32:34.443Z,2.97
2017-08-25T01:35:00.624Z,3.50
2017-08-25T01:37:26.804Z,2.87
2017-08-25T01:39:53.048Z,3.23
2017-08-25T01:42:19.248Z,2.70
2017-08-25T01:44:46.182Z,3.80
2017-08-25T01:47:12.436Z,3.30
2017-08-25T01:49:38.623Z,3.30
2017-08-25T01:52:04.881Z,3.43
2017-08-25T01:54:31.049Z,3.93
2017-08-25T01:56:57.290Z,3.90
2017-08-25T01:59:23.504Z,4.23
2017-08-25T02:01:49.694Z,3.70
2017-08-25T02:04:15.980Z,3.37
2017-08-25T02:06:42.586Z,3.50
2017-08-25T02:09:09.526Z,4.57
2017-08-25T02:11:35.695Z,4.10
2017-08-25T02:14:01.890Z,4.20
2017-08-25T02:16:28.489Z,3.20
2017-08-25T02:18:54.723Z,3.60
2017-08-25T02:21:20.931Z,4.20
2017-08-25T02:23:47.121Z,3.57
2017-08-25T02:26:13.327Z,3.50
2017-08-25T02:28:39.525Z,3.70
2017-08-25T02:31:05.741Z,4.20
2017-08-25T02:33:31.944Z,3.63
2017-08-25T02:35:58.122Z,3.97
2017-08-25T02:38:24.331Z,4.20
2017-08-25T02:40:50.498Z,3.73
2017-08-25T02:43:16.659Z,3.97
2017-08-25T02:45:42.813Z,4.17
2017-08-25T02:48:09.387Z,3.63
2017-08-25T02:50:35.536Z,3.97
2017-08-25T02:53:02.467Z,5.30
2017-08-25T02:55:28.629Z,4.43
2017-08-25T02:57:56.294Z,5.00
2017-08-25T03:00:22.470Z,4.10
2017-08-25T03:02:48.596Z,4.17
2017-08-25T03:05:14.782Z,3.80
2017-08-25T03:07:40.939Z,4.27
2017-08-25T03:10:07.093Z,3.97
2017-08-25T03:12:33.315Z,4.13
2017-08-25T03:14:59.835Z,4.47
2017-08-25T03:17:25.982Z,4.37
2017-08-25T03:19:52.201Z,4.87
2017-08-25T03:22:18.378Z,4.43
2017-08-25T03:24:44.584Z,4.40
2017-08-25T03:27:10.743Z,3.87
2017-08-25T03:29:36.947Z,4.83
2017-08-25T03:32:03.505Z,4.27
2017-08-25T03:34:29.657Z,4.83
2017-08-25T03:36:55.804Z,5.13
2017-08-25T03:39:21.986Z,4.87
2017-08-25T03:41:48.120Z,5.53
2017-08-25T03:44:14.286Z,4.90
2017-08-25T03:46:40.492Z,5.07
2017-08-25T03:49:06.757Z,5.40
2017-08-25T03:51:32.904Z,5.13
2017-08-25T03:53:59.066Z,5.13
2017-08-25T03:56:25.231Z,5.10
2017-08-25T03:58:51.403Z,4.63
2017-08-25T04:01:18.710Z,4.73
2017-08-25T04:03:44.894Z,5.00
2017-08-25T04:06:11.099Z,5.57
2017-08-25T04:08:37.271Z,4.30
2017-08-25T04:11:03.454Z,4.30
2017-08-25T04:13:29.629Z,4.60
2017-08-25T04:15:55.814Z,4.37
2017-08-25T04:18:22.016Z,5.70
2017-08-25T04:20:48.190Z,4.20
2017-08-25T04:23:14.354Z,4.73
2017-08-25T04:25:40.546Z,5.00
2017-08-25T04:28:06.750Z,4.60
2017-08-25T04:30:32.954Z,5.10
2017-08-25T04:32:59.143Z,5.60
2017-08-25T04:35:25.327Z,4.40
2017-08-25T04:37:51.530Z,5.10
2017-08-25T04:40:17.715Z,5.60
2017-08-25T04:42:43.895Z,3.80
2017-08-25T04:45:10.833Z,4.60
2017-08-25T04:47:37.042Z,5.10
2017-08-25T04:50:03.267Z,4.00
2017-08-25T04:52:29.413Z,5.00
2017-08-25T04:54:56.321Z,5.73
2017-08-25T04:57:22.512Z,4.43
2017-08-25T04:59:49.070Z,4.20
2017-08-25T05:02:15.265Z,4.63
2017-08-25T05:04:41.470Z,4.90
2017-08-25T05:07:07.630Z,5.10
2017-08-25T05:09:33.774Z,6.40
2017-08-25T05:11:59.960Z,4.87
2017-08-25T05:14:26.133Z,5.00
2017-08-25T05:16:52.343Z,4.67
2017-08-25T05:19:18.555Z,4.63
2017-08-25T05:21:44.729Z,4.57
2017-08-25T05:24:10.960Z,4.97
2017-08-25T05:26:37.127Z,5.17
2017-08-25T05:29:03.316Z,5.20
2017-08-25T05:31:29.514Z,5.60
2017-08-25T05:33:55.666Z,5.23
2017-08-25T05:36:21.825Z,5.20
2017-08-25T05:38:48.023Z,6.47
2017-08-25T05:41:14.574Z,5.77
2017-08-25T05:43:41.093Z,6.70
2017-08-25T05:46:07.304Z,5.30
2017-08-25T05:48:33.536Z,5.90
2017-08-25T05:50:59.770Z,5.17
2017-08-25T05:53:25.938Z,5.13
2017-08-25T05:55:52.124Z,5.77
2017-08-25T05:58:18.334Z,7.53
2017-08-25T06:00:44.519Z,6.40
2017-08-25T06:03:10.723Z,5.17
2017-08-25T06:05:36.910Z,5.10
2017-08-25T06:08:03.106Z,6.20
2017-08-25T06:10:29.292Z,5.53
2017-08-25T06:12:55.509Z,4.80
2017-08-25T06:15:21.692Z,5.80
2017-08-25T06:17:47.851Z,5.73
2017-08-25T06:20:14.019Z,5.83
2017-08-25T06:22:40.189Z,6.40
2017-08-25T06:25:06.353Z,6.17
2017-08-25T06:27:32.503Z,6.47
2017-08-25T06:29:59.384Z,5.93
2017-08-25T06:32:25.604Z,5.60
2017-08-25T06:34:51.780Z,5.70
2017-08-25T06:37:17.936Z,6.40
2017-08-25T06:39:44.079Z,6.00
2017-08-25T06:42:10.268Z,5.13
2017-08-25T06:44:36.453Z,4.70
2017-08-25T06:47:02.657Z,4.40
2017-08-25T06:49:28.854Z,5.13
2017-08-25T06:51:55.058Z,5.07
2017-08-25T06:54:21.261Z,5.10
2017-08-25T06:56:47.405Z,5.47
2017-08-25T06:59:13.580Z,5.80
2017-08-25T07:01:39.759Z,5.23
2017-08-25T07:04:05.939Z,5.73
2017-08-25T07:06:32.154Z,5.27
2017-08-25T07:08:58.371Z,7.03
2017-08-25T07:11:24.524Z,6.07
2017-08-25T07:13:50.695Z,5.20
2017-08-25T07:16:16.881Z,5.13
2017-08-25T07:18:43.133Z,5.43
2017-08-25T07:21:09.330Z,5.60
2017-08-25T07:23:35.525Z,6.63
2017-08-25T07:26:02.462Z,6.53
2017-08-25T07:28:29.373Z,6.73
2017-08-25T07:30:55.571Z,7.00
2017-08-25T07:33:21.750Z,6.60
2017-08-25T07:35:47.914Z,6.33
2017-08-25T07:38:14.853Z,7.40
2017-08-25T07:40:41.400Z,6.67
2017-08-25T07:43:09.067Z,6.83
2017-08-25T07:45:35.234Z,7.27
2017-08-25T07:48:02.154Z,5.90
2017-08-25T07:50:28.402Z,6.20
2017-08-25T07:52:54.614Z,5.60
2017-08-25T07:55:20.774Z,4.33
2017-08-25T07:57:46.959Z,4.50
2017-08-25T08:00:13.191Z,4.30
2017-08-25T08:02:39.355Z,4.10
2017-08-25T08:05:05.592Z,4.37
2017-08-25T08:07:31.789Z,4.50
2017-08-25T08:09:57.996Z,4.80
2017-08-25T08:14:56.473Z,6.93
2017-08-25T08:17:22.687Z,4.90
2017-08-25T08:19:48.837Z,4.50
2017-08-25T08:22:15.008Z,4.10
2017-08-25T08:24:41.276Z,4.90
2017-08-25T08:27:07.496Z,4.30
2017-08-25T08:29:33.688Z,4.53
2017-08-25T08:31:59.834Z,5.30
2017-08-25T08:34:26.762Z,4.30
2017-08-25T08:36:53.658Z,3.97
2017-08-25T08:39:19.836Z,4.97
2017-08-25T08:41:46.774Z,3.80
2017-08-25T08:44:12.961Z,4.50
2017-08-25T08:46:39.119Z,4.07
2017-08-25T08:49:05.365Z,3.93
2017-08-25T08:51:31.526Z,4.10
2017-08-25T08:53:57.855Z,4.00
2017-08-25T08:56:25.194Z,3.93
2017-08-25T08:58:51.385Z,4.10
2017-08-25T09:01:22.100Z,3.70
2017-08-25T09:03:50.646Z,3.77
2017-08-25T09:06:23.234Z,3.50
2017-08-25T09:08:51.127Z,3.63
2017-08-25T09:11:18.408Z,5.00
2017-08-25T09:13:44.575Z,3.90
2017-08-25T09:16:10.734Z,3.00
2017-08-25T09:18:36.911Z,3.47
2017-08-25T09:21:03.086Z,3.20
2017-08-25T09:23:29.240Z,3.30
2017-08-25T09:25:55.469Z,3.90
2017-08-25T09:28:21.593Z,3.87
2017-08-25T09:30:47.819Z,3.40
2017-08-25T09:33:14.014Z,3.73
2017-08-25T09:35:40.214Z,3.73
2017-08-25T09:38:06.403Z,3.60
2017-08-25T09:40:32.544Z,3.93
2017-08-25T09:42:58.803Z,3.20
2017-08-25T09:45:24.973Z,3.00
2017-08-25T09:47:51.158Z,3.53
2017-08-25T09:50:17.358Z,3.10
2017-08-25T09:52:43.891Z,3.20
2017-08-25T09:55:10.093Z,4.17
2017-08-25T09:57:37.431Z,4.07
2017-08-25T10:00:03.610Z,3.60
2017-08-25T10:02:29.807Z,3.50
2017-08-25T10:04:55.968Z,3.60
2017-08-25T10:07:22.962Z,3.13
2017-08-25T10:09:49.148Z,3.23
2017-08-25T10:12:15.364Z,3.60
2017-08-25T10:14:43.506Z,4.40
2017-08-25T10:17:09.948Z,4.30
2017-08-25T10:19:36.093Z,3.00
2017-08-25T10:22:02.285Z,3.43
2017-08-25T10:24:28.866Z,4.07
2017-08-25T10:26:55.062Z,4.20
2017-08-25T10:29:21.267Z,4.07
2017-08-25T10:31:47.505Z,3.27
2017-08-25T10:34:25.975Z,3.70
2017-08-25T10:37:04.364Z,3.70
2017-08-25T10:42:43.913Z,3.70
2017-08-25T10:45:10.113Z,3.70
2017-08-25T10:47:36.710Z,2.77
2017-08-25T10:50:02.954Z,3.03
2017-08-25T10:52:29.125Z,3.20
2017-08-25T10:54:55.290Z,3.03
2017-08-25T10:57:21.451Z,3.10
2017-08-25T10:59:47.649Z,3.80
2017-08-25T11:02:13.821Z,4.70
2017-08-25T11:04:40.494Z,5.83
2017-08-25T11:07:06.685Z,3.47
2017-08-25T11:09:32.890Z,4.83
2017-08-25T11:11:59.102Z,4.20
2017-08-25T11:14:25.269Z,3.30
2017-08-25T11:16:51.467Z,3.47
2017-08-25T11:19:17.632Z,2.73
2017-08-25T11:21:43.823Z,2.80
2017-08-25T11:24:10.104Z,2.97
2017-08-25T11:26:36.309Z,2.50
2017-08-25T11:29:02.506Z,2.87
2017-08-25T11:31:29.095Z,3.20
2017-08-25T11:33:55.276Z,2.70
2017-08-25T11:36:21.481Z,2.93
2017-08-25T11:38:48.032Z,2.77
2017-08-25T11:41:14.207Z,2.40
2017-08-25T11:43:40.486Z,2.27
2017-08-25T11:46:06.650Z,2.70
2017-08-25T11:48:33.104Z,2.70
2017-08-25T11:50:59.276Z,2.80
2017-08-25T11:53:25.577Z,2.40
2017-08-25T11:55:52.032Z,2.50
2017-08-25T11:58:18.220Z,2.77
2017-08-25T12:00:45.120Z,2.43
2017-08-25T12:03:11.348Z,3.10
2017-08-25T12:05:37.591Z,2.20
2017-08-25T12:08:05.282Z,2.60
2017-08-25T12:10:31.450Z,2.77
2017-08-25T12:12:57.646Z,2.80
2017-08-25T12:15:23.841Z,2.97
2017-08-25T12:17:50.022Z,2.77
2017-08-25T12:20:16.208Z,2.90
2017-08-25T12:22:42.677Z,2.70
2017-08-25T12:25:08.874Z,2.87
2017-08-25T12:27:35.063Z,2.77
2017-08-25T12:30:01.632Z,3.27
2017-08-25T12:32:28.576Z,3.63
2017-08-25T12:34:54.746Z,4.10
2017-08-25T12:37:27.527Z,3.07
2017-08-25T12:39:55.933Z,3.47
2017-08-25T12:42:22.483Z,3.47
2017-08-25T12:44:49.472Z,3.93
2017-08-25T12:47:18.322Z,4.17
2017-08-25T12:49:47.432Z,4.13
2017-08-25T12:52:14.938Z,4.10
2017-08-25T12:54:41.153Z,3.90
2017-08-25T12:57:08.210Z,3.40
2017-08-25T12:59:37.675Z,3.43
2017-08-25T13:02:07.274Z,3.27
2017-08-25T13:07:34.589Z,4.90
2017-08-25T13:10:01.065Z,3.60
2017-08-25T13:12:27.242Z,3.70
2017-08-25T13:14:56.369Z,6.60
2017-08-25T13:17:23.588Z,3.27
2017-08-25T13:19:49.798Z,3.10
2017-08-25T13:22:15.988Z,5.00
2017-08-25T13:24:42.906Z,4.13
2017-08-25T13:27:09.107Z,4.10
2017-08-25T13:29:35.696Z,4.43
2017-08-25T13:32:01.910Z,3.60
2017-08-25T13:34:28.107Z,4.57
2017-08-25T13:36:56.009Z,4.80
2017-08-25T13:39:22.604Z,2.87
2017-08-25T13:41:48.805Z,2.73
2017-08-25T13:44:14.973Z,3.80
2017-08-25T13:46:41.416Z,3.30
2017-08-25T13:49:07.638Z,3.40
2017-08-25T13:51:34.682Z,3.50
2017-08-25T13:54:00.899Z,4.27
2017-08-25T13:56:27.427Z,4.10
2017-08-25T13:58:54.011Z,3.70
2017-08-25T14:01:20.624Z,5.17
2017-08-25T14:03:46.853Z,4.30
2017-08-25T14:06:13.395Z,4.20
2017-08-25T14:08:39.950Z,3.90
2017-08-25T14:11:06.839Z,3.63
2017-08-25T14:13:33.062Z,3.70
2017-08-25T14:15:59.249Z,4.40
2017-08-25T14:18:25.438Z,5.80
2017-08-25T14:20:52.067Z,3.90
2017-08-25T14:23:19.135Z,4.60
2017-08-25T14:25:45.304Z,4.30
2017-08-25T14:28:12.481Z,4.40
2017-08-25T14:30:39.767Z,5.13
2017-08-25T14:33:06.382Z,4.20
2017-08-25T14:35:32.639Z,4.10
2017-08-25T14:37:59.892Z,4.27
2017-08-25T14:40:32.038Z,4.10
2017-08-25T14:42:58.423Z,4.27
2017-08-25T14:45:26.386Z,4.50
2017-08-25T14:47:55.563Z,4.60
2017-08-25T14:50:22.726Z,4.97
2017-08-25T14:52:48.929Z,4.80
2017-08-25T14:55:16.683Z,4.00
2017-08-25T14:57:42.875Z,23.13
2017-08-25T15:00:09.740Z,5.13
2017-08-25T15:02:36.053Z,7.40
2017-08-25T15:05:02.617Z,6.53
2017-08-25T15:07:33.572Z,7.03
2017-08-25T15:09:59.750Z,7.40
2017-08-25T15:12:26.670Z,7.23
2017-08-25T15:14:52.849Z,6.97
2017-08-25T15:17:19.742Z,5.93
2017-08-25T15:19:45.902Z,5.47
2017-08-25T15:22:12.841Z,5.60
2017-08-25T15:24:39.032Z,5.40
2017-08-25T15:27:05.630Z,5.50
2017-08-25T15:29:31.810Z,5.00
2017-08-25T15:31:58.010Z,4.40
2017-08-25T15:34:24.199Z,4.60
2017-08-25T15:36:50.787Z,5.47
2017-08-25T15:39:16.979Z,4.93
2017-08-25T15:41:43.155Z,5.70
2017-08-25T15:44:09.338Z,4.23
2017-08-25T15:46:35.541Z,5.60
2017-08-25T15:49:02.759Z,5.80
2017-08-25T15:51:28.980Z,4.40
2017-08-25T15:53:55.909Z,6.20
2017-08-25T15:56:22.127Z,5.13
2017-08-25T15:58:48.321Z,6.53
2017-08-25T16:01:14.543Z,6.20
2017-08-25T16:03:40.783Z,7.37
2017-08-25T16:06:06.950Z,10.27
2017-08-25T16:08:33.146Z,8.60
2017-08-25T16:10:59.354Z,9.60
2017-08-25T16:13:25.906Z,10.10
2017-08-25T16:15:52.099Z,8.27
2017-08-25T16:18:18.288Z,10.40
2017-08-25T16:20:45.243Z,8.87
2017-08-25T16:23:11.832Z,9.80
2017-08-25T16:25:38.792Z,9.17
2017-08-25T16:28:04.983Z,8.90
2017-08-25T16:30:31.557Z,7.83
2017-08-25T16:32:57.767Z,9.03
2017-08-25T16:35:23.926Z,10.10
2017-08-25T16:37:50.138Z,9.70
2017-08-25T16:40:16.359Z,9.50
2017-08-25T16:42:42.583Z,9.50
2017-08-25T16:45:09.113Z,10.80
2017-08-25T16:47:35.375Z,8.53
2017-08-25T16:50:02.313Z,8.83
2017-08-25T16:52:29.255Z,8.30
2017-08-25T16:54:55.480Z,10.73
2017-08-25T16:57:21.703Z,7.20
2017-08-25T16:59:47.956Z,9.00
2017-08-25T17:02:14.850Z,10.17
2017-08-25T17:04:41.038Z,9.77
2017-08-25T17:07:07.622Z,9.10
2017-08-25T17:09:36.563Z,8.90
2017-08-25T17:12:02.813Z,10.13
2017-08-25T17:14:29.347Z,10.07
2017-08-25T17:16:55.567Z,11.57
2017-08-25T17:19:21.730Z,10.17
2017-08-25T17:21:47.953Z,11.90
2017-08-25T17:24:14.155Z,10.70
2017-08-25T17:26:40.372Z,11.60
2017-08-25T17:29:06.947Z,10.70
2017-08-25T17:31:33.102Z,10.10
2017-08-25T17:33:59.379Z,10.90
2017-08-25T17:36:25.570Z,10.83
2017-08-25T17:38:51.754Z,10.83
2017-08-25T17:41:18.946Z,11.30
2017-08-25T17:43:45.189Z,10.07
2017-08-25T17:46:11.394Z,7.60
2017-08-25T17:48:37.623Z,8.70
2017-08-25T17:51:03.902Z,7.50
2017-08-25T17:53:30.083Z,7.60
2017-08-25T17:55:56.324Z,7.83
2017-08-25T17:58:22.539Z,8.47
2017-08-25T18:00:49.788Z,8.40
2017-08-25T18:03:16.794Z,10.10
2017-08-25T18:05:43.014Z,8.77
2017-08-25T18:08:09.218Z,9.67
2017-08-25T18:10:35.383Z,8.47
2017-08-25T18:13:01.575Z,10.03
2017-08-25T18:15:27.781Z,9.80
2017-08-25T18:17:54.006Z,9.13
2017-08-25T18:20:20.193Z,9.77
2017-08-25T18:22:46.406Z,10.47
2017-08-25T18:25:13.691Z,10.90
2017-08-25T18:27:39.975Z,11.30
2017-08-25T18:30:07.812Z,10.77
2017-08-25T18:32:34.045Z,9.83
2017-08-25T18:35:00.555Z,9.77
2017-08-25T18:37:26.778Z,9.83
2017-08-25T18:39:52.947Z,10.30
2017-08-25T18:42:19.147Z,9.87
2017-08-25T18:44:45.348Z,10.50
2017-08-25T18:47:11.565Z,10.43
2017-08-25T18:49:38.561Z,10.43
2017-08-25T18:52:04.796Z,9.77
2017-08-25T18:54:31.005Z,10.30
2017-08-25T18:56:57.190Z,10.50
2017-08-25T18:59:23.740Z,10.73
2017-08-25T19:01:49.951Z,10.63
2017-08-25T19:04:16.193Z,11.10
2017-08-25T19:06:42.500Z,10.60
2017-08-25T19:09:08.734Z,9.63
2017-08-25T19:11:34.947Z,8.83
2017-08-25T19:14:01.886Z,11.00
2017-08-25T19:16:28.075Z,10.00
2017-08-25T19:18:54.402Z,10.27
2017-08-25T19:21:20.600Z,9.50
2017-08-25T19:23:46.799Z,11.00
2017-08-25T19:26:13.382Z,10.77
2017-08-25T19:28:39.563Z,10.30
2017-08-25T19:31:05.783Z,10.67
2017-08-25T19:33:31.982Z,10.00
2017-08-25T19:35:58.162Z,11.07
2017-08-25T19:38:24.328Z,10.80
2017-08-25T19:40:50.529Z,10.50
2017-08-25T19:43:16.746Z,9.70
2017-08-25T19:45:47.671Z,10.00
2017-08-25T19:48:13.886Z,11.63
2017-08-25T19:50:40.797Z,10.90
2017-08-25T19:53:07.061Z,12.00
2017-08-25T19:55:33.264Z,11.23
2017-08-25T19:57:59.456Z,10.53
2017-08-25T20:00:25.698Z,10.83
2017-08-25T20:02:52.229Z,11.30
2017-08-25T20:05:18.604Z,9.27
2017-08-25T20:07:44.892Z,10.27
2017-08-25T20:10:11.057Z,9.90
2017-08-25T20:12:37.264Z,9.77
2017-08-25T20:15:04.343Z,11.07
2017-08-25T20:17:35.444Z,9.43
2017-08-25T20:20:02.280Z,10.60
2017-08-25T20:22:29.217Z,11.67
2017-08-25T20:24:57.099Z,12.83
2017-08-25T20:27:23.570Z,11.47
2017-08-25T20:29:53.303Z,10.77
2017-08-25T20:32:21.137Z,11.13
2017-08-25T20:34:47.753Z,12.00
2017-08-25T20:37:14.845Z,9.40
2017-08-25T20:39:41.536Z,9.90
2017-08-25T20:42:09.685Z,11.30
2017-08-25T20:44:36.111Z,10.07
2017-08-25T20:47:03.186Z,10.53
2017-08-25T20:49:31.232Z,11.05
2017-08-25T20:52:03.676Z,10.40
2017-08-25T20:54:36.986Z,10.90
2017-08-25T20:57:03.380Z,9.13
2017-08-25T20:59:29.548Z,8.90
2017-08-25T21:01:55.710Z,20.90
2017-08-25T21:04:21.964Z,25.50
2017-08-25T21:06:48.163Z,12.37
2017-08-25T21:09:14.401Z,9.77
2017-08-25T21:11:40.611Z,9.50
2017-08-25T21:14:06.803Z,8.33
2017-08-25T21:16:32.999Z,10.00
2017-08-25T21:18:59.189Z,9.13
2017-08-25T21:21:25.393Z,10.43
2017-08-25T21:23:51.631Z,9.77
2017-08-25T21:26:17.834Z,8.80
2017-08-25T21:28:44.143Z,8.57
2017-08-25T21:31:10.359Z,9.33
2017-08-25T21:33:36.553Z,9.13
2017-08-25T21:36:02.734Z,10.17
2017-08-25T21:38:29.000Z,10.17
2017-08-25T21:40:55.195Z,8.67
2017-08-25T21:43:21.438Z,8.87
2017-08-25T21:45:48.544Z,9.30
2017-08-25T21:48:14.962Z,10.40
2017-08-25T21:50:41.196Z,9.83
2017-08-25T21:53:13.857Z,11.17
2017-08-25T21:56:00.179Z,10.23
2017-08-25T21:58:26.373Z,11.70
2017-08-25T22:00:53.306Z,9.73
2017-08-25T22:03:19.515Z,10.13
2017-08-25T22:05:45.710Z,9.67
2017-08-25T22:08:11.918Z,10.00
2017-08-25T22:10:38.138Z,8.60
2017-08-25T22:13:04.339Z,9.30
2017-08-25T22:15:32.746Z,9.87
2017-08-25T22:18:00.575Z,9.07
2017-08-25T22:20:26.810Z,10.80
2017-08-25T22:22:53.004Z,9.67
2017-08-25T22:25:19.175Z,10.30
2017-08-25T22:27:45.481Z,9.57
2017-08-25T22:30:12.458Z,10.93
2017-08-25T22:32:38.629Z,8.50
2017-08-25T22:35:04.912Z,8.90
2017-08-25T22:37:31.084Z,8.80
2017-08-25T22:39:57.249Z,9.07
2017-08-25T22:42:23.441Z,9.97
2017-08-25T22:44:49.670Z,11.17
2017-08-25T22:47:15.877Z,8.73
2017-08-25T22:49:42.800Z,7.60
2017-08-25T22:52:08.973Z,7.60
2017-08-25T22:54:35.171Z,8.63
2017-08-25T22:57:01.355Z,8.37
2017-08-25T22:59:27.537Z,9.63
2017-08-25T23:01:53.739Z,8.70
2017-08-25T23:04:19.921Z,7.37
2017-08-25T23:06:46.899Z,8.30
2017-08-25T23:09:13.094Z,7.80
2017-08-25T23:11:39.294Z,8.23
2017-08-25T23:14:05.478Z,8.17
2017-08-25T23:16:31.649Z,7.70
2017-08-25T23:18:57.817Z,8.30
2017-08-25T23:21:24.011Z,9.67
2017-08-25T23:23:50.195Z,7.37
2017-08-25T23:26:16.371Z,8.63
2017-08-25T23:28:42.952Z,8.90
2017-08-25T23:31:09.863Z,9.80
2017-08-25T23:33:36.047Z,8.50
2017-08-25T23:36:02.594Z,8.33
2017-08-25T23:38:30.255Z,9.07
2017-08-25T23:40:56.421Z,7.73
2017-08-25T23:43:24.123Z,8.73
2017-08-25T23:45:52.782Z,8.77
2017-08-25T23:48:19.894Z,8.07
2017-08-25T23:50:46.051Z,7.30
2017-08-25T23:53:12.254Z,6.63
2017-08-25T23:55:38.427Z,7.40
2017-08-25T23:58:07.036Z,6.70
